Time;durP1;ratioP1;P1;durP2;ratioP2;P2;SDS_P1;SDS_P2;PMS_P1;PMS_P2;Temp;Humidity;BMP_temperature;BMP_pressure;BME280_temperature;BME280_humidity;BME280_pressure;Samples;Min_cycle;Max_cycle;Signal;HPM_P1;HPM_P2
2022/11/11 00:00:59;;;;;;;6.57;3.03;;;;;;;9.51;100.00;102294.81;4983067;28;20320;-58
2022/11/11 00:03:27;;;;;;;11.80;2.97;;;;;;;9.50;100.00;102290.44;4980661;28;20240;-53
2022/11/11 00:05:54;;;;;;;5.17;2.67;;;;;;;9.46;100.00;102288.56;4983391;28;20611;-54
2022/11/11 00:08:21;;;;;;;6.70;2.53;;;;;;;9.42;100.00;102284.97;4976915;28;20645;-54
2022/11/11 00:10:48;;;;;;;5.60;2.83;;;;;;;9.38;100.00;102283.13;4981731;28;20353;-53
2022/11/11 00:13:15;;;;;;;6.30;2.93;;;;;;;9.35;100.00;102283.03;4973405;28;20239;-54
2022/11/11 00:15:44;;;;;;;7.70;2.93;;;;;;;9.40;100.00;102291.91;4975706;28;20253;-54
2022/11/11 00:26:27;;;;;;;6.53;2.40;;;;;;;9.34;100.00;102312.72;4981359;28;20288;-53
2022/11/11 00:28:54;;;;;;;8.43;2.87;;;;;;;9.32;100.00;102323.13;4975948;28;20266;-53
2022/11/11 00:31:23;;;;;;;9.70;4.67;;;;;;;9.22;100.00;102322.81;4983776;28;20226;-53
2022/11/11 00:33:52;;;;;;;8.77;3.23;;;;;;;9.27;100.00;102318.63;4975257;28;20241;-53
2022/11/11 00:36:18;;;;;;;8.97;3.70;;;;;;;9.17;100.00;102321.81;4978739;28;20241;-54
2022/11/11 00:38:46;;;;;;;6.57;3.13;;;;;;;9.27;100.00;102319.50;4984941;28;20974;-53
2022/11/11 00:41:15;;;;;;;7.13;3.40;;;;;;;9.25;100.00;102328.16;4983790;28;20242;-52
2022/11/11 00:43:42;;;;;;;5.77;2.60;;;;;;;9.24;100.00;102321.16;4981029;28;20257;-52
2022/11/11 00:51:40;;;;;;;6.60;3.00;;;;;;;9.12;100.00;102323.38;4984836;28;20249;-54
2022/11/11 00:54:07;;;;;;;3.50;2.47;;;;;;;9.14;100.00;102312.09;4983602;28;20336;-54
2022/11/11 00:56:36;;;;;;;5.30;3.17;;;;;;;9.11;100.00;102311.13;4980285;28;20234;-55
2022/11/11 00:59:04;;;;;;;7.03;2.73;;;;;;;9.10;100.00;102309.34;4978653;28;20245;-54
2022/11/11 01:01:31;;;;;;;14.40;4.30;;;;;;;9.08;100.00;102302.31;4979462;28;20248;-53
2022/11/11 01:03:59;;;;;;;5.73;2.73;;;;;;;9.03;100.00;102309.16;4983672;28;20321;-54
2022/11/11 01:06:27;;;;;;;5.17;2.67;;;;;;;8.94;100.00;102290.53;4978592;28;20788;-54
2022/11/11 01:08:56;;;;;;;7.93;3.10;;;;;;;8.93;100.00;102290.50;4980110;28;20226;-53
2022/11/11 01:11:24;;;;;;;10.43;3.73;;;;;;;8.96;100.00;102275.75;4977425;28;20236;-53
2022/11/11 01:13:52;;;;;;;7.07;3.47;;;;;;;8.85;100.00;102285.03;4976047;28;20230;-53
2022/11/11 01:16:21;;;;;;;10.03;2.90;;;;;;;8.82;100.00;102282.31;4980698;28;20230;-53
2022/11/11 01:18:48;;;;;;;7.40;3.67;;;;;;;8.83;100.00;102284.09;4975919;28;20237;-54
2022/11/11 01:21:18;;;;;;;9.77;3.30;;;;;;;8.82;100.00;102277.06;4976984;28;20271;-53
2022/11/11 01:23:52;;;;;;;5.23;2.57;;;;;;;8.74;100.00;102274.22;4975492;28;20243;-54
2022/11/11 01:26:21;;;;;;;5.90;2.90;;;;;;;8.80;100.00;102278.75;4974383;28;20245;-54
2022/11/11 01:28:49;;;;;;;7.50;3.50;;;;;;;8.80;100.00;102269.16;4974075;28;20230;-53
2022/11/11 01:31:17;;;;;;;7.40;3.03;;;;;;;8.90;100.00;102279.94;4974583;28;20347;-54
2022/11/11 01:33:47;;;;;;;8.30;2.57;;;;;;;8.81;100.00;102265.72;4974050;28;20230;-52
2022/11/11 01:36:17;;;;;;;3.00;2.63;;;;;;;8.81;100.00;102273.56;4973126;28;20257;-53
2022/11/11 01:38:49;;;;;;;5.63;3.70;;;;;;;8.82;100.00;102274.47;4982511;28;20240;-53
2022/11/11 01:41:32;;;;;;;8.07;3.03;;;;;;;8.78;100.00;102278.72;4974561;28;20242;-53
2022/11/11 01:44:00;;;;;;;4.23;2.57;;;;;;;8.80;100.00;102283.97;4980099;28;20222;-53
2022/11/11 01:46:34;;;;;;;5.03;2.47;;;;;;;8.78;100.00;102280.44;4975437;28;20316;-53
2022/11/11 01:49:19;;;;;;;6.63;4.17;;;;;;;8.71;100.00;102283.72;4978574;28;20715;-53
2022/11/11 01:51:55;;;;;;;5.07;2.63;;;;;;;8.75;100.00;102282.97;4975225;28;20320;-53
2022/11/11 01:54:24;;;;;;;6.30;2.93;;;;;;;8.77;100.00;102273.41;4976969;28;20290;-54
2022/11/11 01:56:55;;;;;;;5.83;2.87;;;;;;;8.90;100.00;102286.03;4978400;28;20236;-54
2022/11/11 01:59:23;;;;;;;7.73;3.20;;;;;;;8.91;100.00;102295.69;4979387;28;20270;-54
2022/11/11 02:01:50;;;;;;;5.33;2.80;;;;;;;8.79;100.00;102298.81;4976017;28;20282;-53
2022/11/11 02:07:07;;;;;;;7.67;3.17;;;;;;;8.70;100.00;102303.75;4974948;28;20253;-53
2022/11/11 02:09:34;;;;;;;7.20;3.70;;;;;;;8.73;100.00;102301.22;4979713;28;20307;-53
2022/11/11 02:14:52;;;;;;;11.57;3.67;;;;;;;8.76;100.00;102303.06;4983482;28;20296;-54
2022/11/11 02:17:19;;;;;;;7.73;3.33;;;;;;;8.77;100.00;102304.84;4975792;28;20237;-54
2022/11/11 02:19:49;;;;;;;6.53;2.97;;;;;;;8.73;100.00;102314.31;4969516;28;20642;-53
2022/11/11 02:22:23;;;;;;;5.33;3.03;;;;;;;8.77;100.00;102316.19;4974747;28;20234;-53
2022/11/11 02:24:52;;;;;;;8.87;2.87;;;;;;;8.78;100.00;102311.88;4975868;28;20226;-53
2022/11/11 02:27:20;;;;;;;7.80;3.73;;;;;;;8.75;100.00;102332.72;4977258;28;20877;-53
2022/11/11 02:29:50;;;;;;;8.73;3.47;;;;;;;8.80;100.00;102332.00;4980187;28;20238;-53
2022/11/11 02:32:17;;;;;;;5.93;3.30;;;;;;;8.70;100.00;102340.41;4976588;28;20317;-53
2022/11/11 02:34:44;;;;;;;3.40;2.63;;;;;;;8.70;100.00;102331.66;4974398;28;20282;-55
2022/11/11 02:37:11;;;;;;;7.43;3.80;;;;;;;8.77;100.00;102329.28;4975239;28;20304;-54
2022/11/11 02:39:44;;;;;;;7.23;2.83;;;;;;;8.86;100.00;102323.47;4976284;28;20260;-53
2022/11/11 02:42:14;;;;;;;6.03;3.03;;;;;;;8.79;100.00;102329.34;4973233;28;20265;-54
2022/11/11 02:44:41;;;;;;;5.90;2.77;;;;;;;8.74;100.00;102321.34;4978186;28;20827;-53
2022/11/11 02:47:08;;;;;;;6.77;2.60;;;;;;;8.75;100.00;102322.25;4982214;28;20303;-53
2022/11/11 02:49:35;;;;;;;4.47;2.70;;;;;;;8.68;100.00;102310.69;4981847;28;20325;-53
2022/11/11 02:52:02;;;;;;;6.83;2.80;;;;;;;8.76;100.00;102309.19;4979774;28;20245;-53
2022/11/11 02:54:32;;;;;;;10.23;3.23;;;;;;;8.76;100.00;102308.31;4982568;28;20312;-54
2022/11/11 02:57:08;;;;;;;4.30;3.20;;;;;;;8.68;100.00;102320.28;4981319;28;20257;-53
2022/11/11 02:59:38;;;;;;;4.63;2.93;;;;;;;8.67;100.00;102322.00;4974614;28;20230;-53
2022/11/11 03:02:06;;;;;;;3.93;3.27;;;;;;;8.63;100.00;102316.59;4974343;28;20647;-54
2022/11/11 03:04:33;;;;;;;6.60;3.80;;;;;;;8.70;100.00;102319.47;4978152;28;20292;-53
2022/11/11 03:07:01;;;;;;;8.00;3.43;;;;;;;8.76;100.00;102310.91;4981229;28;20266;-54
2022/11/11 03:09:28;;;;;;;5.00;2.80;;;;;;;8.77;100.00;102315.31;4989274;28;20329;-52
2022/11/11 03:11:54;;;;;;;3.83;2.93;;;;;;;8.63;100.00;102312.25;4973236;28;20770;-53
2022/11/11 03:14:22;;;;;;;6.43;3.73;;;;;;;8.61;100.00;102319.19;4980743;28;20241;-53
2022/11/11 03:19:35;;;;;;;5.23;3.43;;;;;;;8.57;100.00;102312.06;4978718;28;20244;-53
2022/11/11 03:22:02;;;;;;;8.07;3.10;;;;;;;8.78;100.00;102317.09;4978935;28;20602;-53
2022/11/11 03:27:29;;;;;;;6.13;3.43;;;;;;;8.61;100.00;102311.31;4974405;28;20341;-52
2022/11/11 03:30:07;;;;;;;5.30;3.10;;;;;;;8.61;100.00;102308.72;4982562;28;20233;-54
2022/11/11 03:32:36;;;;;;;3.43;2.90;;;;;;;8.50;100.00;102297.00;4984828;28;20229;-52
2022/11/11 03:35:05;;;;;;;5.83;2.83;;;;;;;8.54;100.00;102306.72;4974047;28;20261;-53
2022/11/11 03:40:53;;;;;;;6.60;3.23;;;;;;;8.51;100.00;102297.03;4980719;28;20232;-54
2022/11/11 03:43:24;;;;;;;6.10;3.10;;;;;;;8.50;100.00;102284.81;4951997;28;20225;-53
2022/11/11 03:45:51;;;;;;;5.57;3.97;;;;;;;8.54;100.00;102288.41;4986232;28;20241;-53
2022/11/11 03:48:20;;;;;;;8.13;3.30;;;;;;;8.48;100.00;102270.75;4982225;28;20588;-53
2022/11/11 03:50:59;;;;;;;8.00;3.77;;;;;;;8.42;100.00;102270.56;4981132;28;20234;-54
2022/11/11 03:53:26;;;;;;;5.40;2.90;;;;;;;8.38;100.00;102267.78;4982262;28;20234;-55
2022/11/11 03:55:53;;;;;;;5.37;3.50;;;;;;;8.41;100.00;102268.78;4970768;28;20238;-54
2022/11/11 03:58:20;;;;;;;5.53;3.23;;;;;;;8.40;100.00;102266.13;4981207;28;20326;-53
2022/11/11 04:00:47;;;;;;;5.33;3.03;;;;;;;8.35;100.00;102268.53;4977890;28;20233;-53
2022/11/11 04:11:29;;;;;;;9.97;3.20;;;;;;;8.39;100.00;102280.03;4979804;28;20269;-53
2022/11/11 04:16:43;;;;;;;3.73;3.20;;;;;;;8.43;100.00;102274.09;4979462;28;20265;-52
2022/11/11 04:22:04;;;;;;;3.17;2.87;;;;;;;8.35;100.00;102271.16;4956388;28;20237;-53
2022/11/11 04:27:32;;;;;;;4.97;3.80;;;;;;;8.40;100.00;102272.25;4973418;28;20236;-53
2022/11/11 04:30:03;;;;;;;7.60;2.70;;;;;;;8.39;100.00;102274.81;4985563;28;20245;-53
2022/11/11 04:32:37;;;;;;;5.40;3.20;;;;;;;8.33;100.00;102271.13;4982100;28;20269;-53
2022/11/11 04:35:06;;;;;;;4.87;3.13;;;;;;;8.39;100.00;102275.72;4970696;28;20611;-54
2022/11/11 04:37:36;;;;;;;6.30;3.37;;;;;;;8.34;100.00;102269.41;4986421;28;20249;-53
2022/11/11 04:42:48;;;;;;;6.93;3.20;;;;;;;8.39;100.00;102288.81;4986896;28;20847;-53
2022/11/11 04:45:34;;;;;;;5.30;4.07;;;;;;;8.39;100.00;102282.66;4976636;28;20258;-54
2022/11/11 04:48:03;;;;;;;7.50;3.27;;;;;;;8.27;100.00;102297.09;4976982;28;20284;-53
2022/11/11 04:50:42;;;;;;;7.53;3.37;;;;;;;8.29;100.00;102294.53;4978131;28;20715;-53
2022/11/11 04:53:12;;;;;;;6.60;3.23;;;;;;;8.30;100.00;102293.69;4982098;28;20284;-53
2022/11/11 04:58:26;;;;;;;2.87;2.50;;;;;;;8.39;100.00;102291.41;4972223;28;20289;-54
2022/11/11 05:03:14;;;;;;;3.47;2.60;;;;;;;8.48;100.00;102296.94;4980398;28;20861;-59
2022/11/11 05:03:57;;;;;;;11.63;3.73;;;;;;;8.45;100.00;102298.56;4973736;28;20230;-53
2022/11/11 05:09:10;;;;;;;6.20;3.13;;;;;;;8.47;100.00;102300.41;4973974;28;20234;-53
2022/11/11 05:11:39;;;;;;;4.87;2.70;;;;;;;8.45;100.00;102295.94;4978545;28;20229;-53
2022/11/11 05:22:43;;;;;;;6.07;2.90;;;;;;;8.40;100.00;102281.84;4980089;28;20765;-53
2022/11/11 05:25:29;;;;;;;4.27;2.90;;;;;;;8.40;100.00;102297.53;4967741;28;20652;-54
2022/11/11 05:27:56;;;;;;;3.73;2.83;;;;;;;8.45;100.00;102299.44;4976723;28;20230;-53
2022/11/11 05:30:29;;;;;;;9.53;3.83;;;;;;;8.39;100.00;102306.19;4977112;28;20735;-55
2022/11/11 05:33:08;;;;;;;8.50;2.90;;;;;;;8.41;100.00;102315.00;4971113;28;20805;-54
2022/11/11 05:35:49;;;;;;;7.53;3.17;;;;;;;8.41;100.00;102326.38;4977557;28;20766;-54
2022/11/11 05:38:23;;;;;;;6.37;2.80;;;;;;;8.43;100.00;102332.56;4974954;28;20292;-55
2022/11/11 05:40:56;;;;;;;5.87;3.23;;;;;;;8.43;100.00;102339.53;4981283;28;20752;-54
2022/11/11 05:43:23;;;;;;;7.13;3.10;;;;;;;8.39;100.00;102343.75;4969529;28;20257;-55
2022/11/11 05:45:58;;;;;;;5.90;3.97;;;;;;;8.40;100.00;102347.25;4983990;28;20856;-55
2022/11/11 05:48:25;;;;;;;4.63;3.13;;;;;;;8.42;100.00;102349.06;4977887;28;20234;-54
2022/11/11 05:50:52;;;;;;;8.23;4.43;;;;;;;8.51;100.00;102344.16;4984033;28;20280;-54
2022/11/11 05:53:22;;;;;;;5.03;3.03;;;;;;;8.62;100.00;102341.00;4982050;28;20292;-53
2022/11/11 05:55:50;;;;;;;5.97;3.97;;;;;;;8.60;100.00;102336.63;4982524;28;20672;-54
2022/11/11 05:58:19;;;;;;;8.87;3.17;;;;;;;8.53;100.00;102324.16;4982004;28;20234;-53
2022/11/11 06:00:46;;;;;;;5.67;3.27;;;;;;;8.47;100.00;102326.56;4979067;28;20304;-54
2022/11/11 06:03:13;;;;;;;6.67;3.00;;;;;;;8.44;100.00;102331.72;4974527;28;20425;-53
2022/11/11 06:05:40;;;;;;;7.27;3.93;;;;;;;8.49;100.00;102335.34;4976352;28;20261;-53
2022/11/11 06:08:07;;;;;;;7.63;3.77;;;;;;;8.52;100.00;102340.69;4974225;28;20317;-53
2022/11/11 06:10:33;;;;;;;4.00;2.87;;;;;;;8.51;100.00;102344.16;4975051;28;20226;-53
2022/11/11 06:13:09;;;;;;;9.00;3.30;;;;;;;8.50;100.00;102337.16;4974840;28;20756;-53
2022/11/11 06:15:38;;;;;;;6.00;3.50;;;;;;;8.51;100.00;102346.78;4978202;28;20237;-54
2022/11/11 06:18:06;;;;;;;5.30;2.80;;;;;;;8.50;100.00;102339.78;4982016;28;20426;-53
2022/11/11 06:20:34;;;;;;;8.60;3.03;;;;;;;8.47;100.00;102351.88;4983100;28;20226;-53
2022/11/11 06:23:01;;;;;;;11.07;3.83;;;;;;;8.49;100.00;102355.41;4976590;28;20234;-53
2022/11/11 06:28:17;;;;;;;6.83;3.50;;;;;;;8.48;100.00;102354.53;4983422;28;20264;-55
2022/11/11 06:30:46;;;;;;;7.63;3.43;;;;;;;8.47;100.00;102355.38;4974370;28;20316;-54
2022/11/11 06:33:13;;;;;;;7.23;3.17;;;;;;;8.50;100.00;102355.47;4985760;28;20458;-53
2022/11/11 06:35:44;;;;;;;9.47;3.93;;;;;;;8.48;100.00;102361.50;4981271;28;20241;-53
2022/11/11 06:38:10;;;;;;;5.60;3.20;;;;;;;8.48;100.00;102358.88;4976250;28;20234;-54
2022/11/11 06:40:37;;;;;;;7.67;2.83;;;;;;;8.56;100.00;102358.31;4977656;28;20234;-53
2022/11/11 06:43:04;;;;;;;5.53;3.63;;;;;;;8.52;100.00;102355.50;4985860;28;20245;-53
2022/11/11 06:45:32;;;;;;;5.10;2.73;;;;;;;8.50;100.00;102360.72;4979539;28;20242;-55
2022/11/11 06:48:00;;;;;;;8.33;3.70;;;;;;;8.69;100.00;102361.31;4982532;28;20233;-53
2022/11/11 06:50:28;;;;;;;7.43;3.27;;;;;;;8.65;100.00;102354.19;4985314;28;20233;-54
2022/11/11 06:52:55;;;;;;;7.43;3.03;;;;;;;8.54;100.00;102351.22;4986794;28;20288;-55
2022/11/11 06:55:22;;;;;;;7.87;2.43;;;;;;;8.53;100.00;102352.03;4979604;28;20313;-53
2022/11/11 06:57:49;;;;;;;6.70;2.83;;;;;;;8.65;100.00;102343.72;4977246;28;20230;-54
2022/11/11 07:00:17;;;;;;;6.13;3.47;;;;;;;8.52;100.00;102345.03;4971598;28;20246;-53
2022/11/11 07:02:44;;;;;;;6.17;3.40;;;;;;;8.59;100.00;102340.06;4981407;28;20262;-54
2022/11/11 07:05:12;;;;;;;7.20;3.17;;;;;;;8.70;100.00;102347.38;4972461;28;20292;-53
2022/11/11 07:07:39;;;;;;;9.00;3.57;;;;;;;8.73;100.00;102350.97;4979964;28;20230;-54
2022/11/11 07:10:09;;;;;;;7.93;3.83;;;;;;;8.73;100.00;102365.81;4984068;28;20241;-54
2022/11/11 07:12:36;;;;;;;7.10;3.07;;;;;;;8.71;100.00;102362.28;4979635;28;20237;-54
2022/11/11 07:15:03;;;;;;;4.67;2.90;;;;;;;8.72;100.00;102369.28;4981625;28;21383;-53
2022/11/11 07:17:30;;;;;;;6.00;3.17;;;;;;;8.81;100.00;102359.13;4983580;28;20237;-53
2022/11/11 07:19:56;;;;;;;5.97;3.77;;;;;;;8.76;100.00;102351.09;4978255;28;20316;-54
2022/11/11 07:22:25;;;;;;;4.57;2.87;;;;;;;8.72;100.00;102345.72;4984096;28;20234;-57
2022/11/11 07:24:51;;;;;;;5.37;3.20;;;;;;;8.72;100.00;102349.22;4979503;28;20237;-54
2022/11/11 07:27:18;;;;;;;8.33;3.10;;;;;;;8.75;100.00;102349.31;4982630;28;20233;-54
2022/11/11 07:29:47;;;;;;;6.33;3.20;;;;;;;8.77;100.00;102349.34;4979642;28;20288;-55
2022/11/11 07:32:16;;;;;;;6.60;3.30;;;;;;;8.79;100.00;102356.44;4974361;28;20250;-54
2022/11/11 07:34:43;;;;;;;5.00;2.40;;;;;;;8.91;100.00;102358.53;4978385;28;20241;-54
2022/11/11 07:37:10;;;;;;;5.60;2.70;;;;;;;8.80;100.00;102363.44;4976847;28;20242;-53
2022/11/11 07:39:38;;;;;;;5.53;2.87;;;;;;;8.84;100.00;102374.91;4980904;28;20309;-53
2022/11/11 07:42:05;;;;;;;5.80;3.00;;;;;;;8.86;100.00;102383.72;4979647;28;20269;-54
2022/11/11 07:44:32;;;;;;;5.50;2.60;;;;;;;8.83;100.00;102389.72;4985775;28;20233;-54
2022/11/11 07:46:59;;;;;;;5.07;3.27;;;;;;;8.92;100.00;102383.03;4975998;28;20238;-53
2022/11/11 07:49:26;;;;;;;11.20;2.87;;;;;;;8.97;100.00;102390.19;4982126;28;20238;-53
2022/11/11 07:51:53;;;;;;;5.80;3.27;;;;;;;8.99;100.00;102395.47;4985327;28;20234;-53
2022/11/11 07:54:20;;;;;;;8.47;2.97;;;;;;;9.03;100.00;102398.25;4978731;28;20861;-52
2022/11/11 07:56:48;;;;;;;4.47;2.87;;;;;;;9.06;100.00;102393.09;4984028;28;20237;-53
2022/11/11 07:59:15;;;;;;;5.50;3.13;;;;;;;8.94;100.00;102392.69;4982869;28;20234;-53
2022/11/11 08:01:41;;;;;;;4.60;3.40;;;;;;;8.95;100.00;102383.09;4977570;28;20925;-53
2022/11/11 08:04:08;;;;;;;6.93;3.07;;;;;;;9.01;100.00;102399.91;4983971;28;20230;-53
2022/11/11 08:06:35;;;;;;;5.67;2.90;;;;;;;8.97;100.00;102408.50;4977037;28;20235;-54
2022/11/11 08:09:02;;;;;;;8.87;3.60;;;;;;;8.94;100.00;102418.88;4979115;28;20248;-53
2022/11/11 08:14:15;;;;;;;11.90;3.40;;;;;;;9.11;100.00;102415.94;4983627;28;20245;-54
2022/11/11 08:16:42;;;;;;;5.13;3.03;;;;;;;9.08;100.00;102403.63;4981392;28;20786;-53
2022/11/11 08:19:09;;;;;;;6.47;3.20;;;;;;;9.15;100.00;102409.94;4980417;28;20245;-54
2022/11/11 08:21:36;;;;;;;8.20;3.43;;;;;;;9.12;100.00;102412.47;4974023;28;20233;-54
2022/11/11 08:24:03;;;;;;;7.27;3.20;;;;;;;9.12;100.00;102420.31;4978173;28;20365;-54
2022/11/11 08:26:30;;;;;;;8.23;3.43;;;;;;;9.15;100.00;102423.03;4975408;28;20324;-55
2022/11/11 08:28:58;;;;;;;9.10;3.40;;;;;;;9.21;100.00;102429.38;4982821;28;20730;-53
2022/11/11 08:31:26;;;;;;;7.40;3.73;;;;;;;9.27;100.00;102426.06;4975564;28;20866;-55
2022/11/11 08:33:53;;;;;;;4.90;2.93;;;;;;;9.29;100.00;102429.63;4977804;28;20903;-60
2022/11/11 08:36:22;;;;;;;6.20;2.87;;;;;;;9.30;100.00;102436.63;4981476;28;20234;-54
2022/11/11 08:38:49;;;;;;;4.20;2.93;;;;;;;9.46;100.00;102438.91;4973588;28;20296;-54
2022/11/11 08:41:16;;;;;;;5.33;2.77;;;;;;;9.40;100.00;102433.44;4981145;28;20230;-54
2022/11/11 08:43:44;;;;;;;6.07;2.43;;;;;;;9.41;100.00;102440.50;4976168;28;20245;-54
2022/11/11 08:46:11;;;;;;;5.63;3.00;;;;;;;9.58;100.00;102441.00;4971812;28;20334;-53
2022/11/11 08:48:39;;;;;;;4.93;3.47;;;;;;;9.78;100.00;102455.59;4976767;28;20230;-53
2022/11/11 08:51:06;;;;;;;6.60;4.00;;;;;;;9.80;100.00;102463.53;4975065;28;20309;-53
2022/11/11 08:53:34;;;;;;;4.90;3.00;;;;;;;9.87;100.00;102481.25;4981364;28;20250;-54
2022/11/11 08:56:02;;;;;;;3.97;2.90;;;;;;;9.92;100.00;102469.13;4984568;28;20229;-53
2022/11/11 08:58:29;;;;;;;4.30;2.87;;;;;;;9.94;100.00;102477.94;4973459;28;20720;-52
2022/11/11 09:00:56;;;;;;;4.20;2.73;;;;;;;10.03;100.00;102477.31;4976705;28;20230;-54
2022/11/11 09:03:23;;;;;;;11.33;3.37;;;;;;;10.07;100.00;102479.19;4980790;28;20245;-58
2022/11/11 09:05:52;;;;;;;5.30;2.50;;;;;;;10.11;100.00;102483.69;4975163;28;20246;-54
2022/11/11 09:08:19;;;;;;;6.30;2.40;;;;;;;10.22;100.00;102489.25;4983373;28;20313;-54
2022/11/11 09:10:46;;;;;;;6.37;2.83;;;;;;;10.25;100.00;102492.91;4974791;28;20262;-53
2022/11/11 09:13:13;;;;;;;5.43;2.90;;;;;;;10.26;100.00;102491.16;4982608;28;20231;-53
2022/11/11 09:15:40;;;;;;;9.50;3.07;;;;;;;10.26;100.00;102497.28;4982283;28;20238;-53
2022/11/11 09:18:07;;;;;;;4.13;2.30;;;;;;;10.31;100.00;102493.91;4969920;28;20234;-53
2022/11/11 09:20:34;;;;;;;4.87;3.57;;;;;;;10.36;100.00;102503.69;4975895;28;20587;-53
2022/11/11 09:23:03;;;;;;;7.47;2.90;;;;;;;10.38;100.00;102502.00;4979332;28;20257;-53
2022/11/11 09:25:30;;;;;;;3.97;2.63;;;;;;;10.39;100.00;102498.53;4978443;28;20247;-54
2022/11/11 09:27:58;;;;;;;8.90;2.97;;;;;;;10.36;100.00;102497.56;4974093;28;20226;-53
2022/11/11 09:30:26;;;;;;;4.77;2.93;;;;;;;10.35;100.00;102496.66;4974301;28;20257;-54
2022/11/11 09:33:00;;;;;;;3.23;2.60;;;;;;;10.45;100.00;102496.06;4984354;28;20261;-53
2022/11/11 09:35:27;;;;;;;16.50;11.93;;;;;;;10.46;100.00;102500.50;4979382;28;20283;-53
2022/11/11 09:37:55;;;;;;;12.30;3.80;;;;;;;10.42;100.00;102502.97;4982357;28;20240;-53
2022/11/11 09:40:25;;;;;;;8.63;3.20;;;;;;;10.49;100.00;102508.47;4979576;28;20237;-53
2022/11/11 09:42:59;;;;;;;4.80;2.50;;;;;;;10.50;100.00;102512.84;4976320;28;20804;-53
2022/11/11 09:45:31;;;;;;;6.87;2.93;;;;;;;10.53;100.00;102519.94;4969552;28;20774;-53
2022/11/11 09:48:03;;;;;;;5.23;2.70;;;;;;;10.64;99.73;102520.22;4973647;28;20266;-52
2022/11/11 09:50:32;;;;;;;6.63;2.77;;;;;;;10.51;99.69;102517.25;4974900;28;20312;-53
2022/11/11 09:53:03;;;;;;;6.90;3.17;;;;;;;10.55;99.76;102509.47;4983567;28;20244;-54
2022/11/11 09:55:35;;;;;;;5.77;2.67;;;;;;;10.56;100.00;102519.09;4974182;28;20709;-53
2022/11/11 09:58:05;;;;;;;3.20;2.53;;;;;;;10.61;100.00;102520.13;4984841;28;20939;-53
2022/11/11 10:00:35;;;;;;;3.87;2.80;;;;;;;10.69;100.00;102530.00;4979887;28;20269;-53
2022/11/11 10:03:08;;;;;;;5.87;2.80;;;;;;;10.72;99.48;102529.19;4976882;28;20734;-53
2022/11/11 10:05:41;;;;;;;3.70;2.90;;;;;;;10.78;98.75;102534.63;4980638;28;20229;-53
2022/11/11 10:08:13;;;;;;;4.00;2.70;;;;;;;10.82;98.70;102531.22;4975636;28;20252;-53
2022/11/11 10:10:44;;;;;;;5.83;4.13;;;;;;;10.96;97.72;102529.84;4980784;28;20321;-53
2022/11/11 10:13:14;;;;;;;6.37;2.70;;;;;;;11.11;96.36;102528.47;4984704;28;20292;-52
2022/11/11 10:15:50;;;;;;;3.87;2.17;;;;;;;11.09;95.45;102533.69;4969634;28;20240;-52
2022/11/11 10:18:27;;;;;;;7.83;2.67;;;;;;;11.09;95.48;102524.91;4978498;28;20237;-53
2022/11/11 10:20:55;;;;;;;4.93;2.40;;;;;;;11.11;96.03;102528.47;4984505;28;20229;-56
2022/11/11 10:23:26;;;;;;;4.30;2.30;;;;;;;11.14;95.99;102532.06;4982845;28;20238;-53
2022/11/11 10:25:56;;;;;;;5.60;2.93;;;;;;;11.16;96.07;102529.47;4976157;28;20333;-54
2022/11/11 10:28:27;;;;;;;3.57;2.73;;;;;;;11.18;95.60;102536.53;4984327;28;20322;-53
2022/11/11 10:30:54;;;;;;;4.30;3.27;;;;;;;11.23;95.52;102534.03;4974427;28;20843;-60
2022/11/11 10:33:25;;;;;;;4.30;2.00;;;;;;;11.28;95.04;102537.69;4975578;28;20253;-54
2022/11/11 10:35:52;;;;;;;4.67;2.10;;;;;;;11.33;94.15;102535.16;4977936;28;20234;-53
2022/11/11 10:38:26;;;;;;;4.83;2.70;;;;;;;11.28;93.28;102537.69;4983228;28;20229;-53
2022/11/11 10:40:55;;;;;;;4.13;2.50;;;;;;;11.31;93.75;102529.88;4986101;28;20319;-52
2022/11/11 10:43:23;;;;;;;4.00;2.47;;;;;;;11.36;93.49;102524.72;4980118;28;20234;-53
2022/11/11 10:45:57;;;;;;;8.33;6.00;;;;;;;11.44;93.02;102524.06;4979250;28;20241;-54
2022/11/11 10:48:31;;;;;;;4.53;2.63;;;;;;;11.40;92.79;102510.78;4977886;28;20245;-55
2022/11/11 10:51:00;;;;;;;5.47;2.30;;;;;;;11.42;92.79;102517.88;4981724;28;20316;-54
2022/11/11 10:53:33;;;;;;;4.87;2.63;;;;;;;11.45;92.07;102524.94;4976370;28;20688;-53
2022/11/11 10:56:06;;;;;;;8.27;2.37;;;;;;;11.57;91.93;102519.97;4977259;28;20246;-53
2022/11/11 10:58:35;;;;;;;3.67;2.60;;;;;;;11.61;91.52;102520.94;4975919;28;20296;-54
2022/11/11 11:01:04;;;;;;;6.30;2.38;;;;;;;11.58;92.20;102515.59;4978665;28;20244;-53
2022/11/11 11:03:32;;;;;;;4.77;2.47;;;;;;;11.66;91.41;102521.94;4982996;28;20348;-52
2022/11/11 11:06:05;;;;;;;3.93;2.23;;;;;;;11.74;91.21;102512.47;4975211;28;20320;-53
2022/11/11 11:08:36;;;;;;;5.28;2.60;;;;;;;11.73;91.21;102510.69;4976648;28;20976;-52
2022/11/11 11:11:08;;;;;;;4.70;1.92;;;;;;;11.73;90.76;102513.31;4979194;28;20226;-53
2022/11/11 11:13:40;;;;;;;4.63;2.35;;;;;;;11.78;90.74;102502.91;4982038;28;20321;-53
2022/11/11 11:16:16;;;;;;;3.42;2.58;;;;;;;11.77;89.75;102502.00;4983350;28;20248;-53
2022/11/11 11:18:43;;;;;;;2.27;2.10;;;;;;;11.84;89.74;102503.97;4978898;28;20714;-52
2022/11/11 11:21:10;;;;;;;3.93;2.10;;;;;;;11.88;89.66;102499.66;4978857;28;20572;-53
2022/11/11 11:23:39;;;;;;;4.38;2.53;;;;;;;11.94;89.48;102503.31;4987058;28;20806;-53
2022/11/11 11:26:08;;;;;;;5.85;3.90;;;;;;;11.99;88.44;102502.50;4988883;28;20302;-53
2022/11/11 11:28:35;;;;;;;5.77;2.77;;;;;;;12.08;86.17;102497.47;4991619;28;20234;-54
2022/11/11 11:31:03;;;;;;;4.43;2.78;;;;;;;12.17;85.49;102492.38;4986367;28;20328;-53
2022/11/11 11:33:52;;;;;;;3.17;2.03;;;;;;;12.18;84.82;102494.16;4982346;28;20275;-53
2022/11/11 11:36:19;;;;;;;4.22;2.00;;;;;;;12.30;84.32;102490.88;4980401;28;20289;-52
2022/11/11 11:38:49;;;;;;;3.45;1.98;;;;;;;12.27;82.88;102483.78;4980975;28;20316;-53
2022/11/11 11:41:18;;;;;;;3.53;2.10;;;;;;;12.34;83.46;102488.34;4971352;28;20821;-54
2022/11/11 11:43:45;;;;;;;3.22;1.80;;;;;;;12.38;83.17;102486.66;4978675;28;20250;-52
2022/11/11 11:46:19;;;;;;;3.40;1.73;;;;;;;12.31;82.90;102479.47;4976507;28;20760;-53
2022/11/11 11:48:59;;;;;;;3.22;1.70;;;;;;;12.41;82.93;102473.53;4983595;28;20236;-53
2022/11/11 11:51:33;;;;;;;2.83;1.88;;;;;;;12.38;83.26;102474.34;4976315;28;20701;-55
2022/11/11 11:54:13;;;;;;;4.65;1.98;;;;;;;12.36;83.17;102470.81;4980578;28;20750;-53
2022/11/11 11:56:44;;;;;;;4.38;1.95;;;;;;;12.43;82.00;102469.19;4973724;28;20329;-53
2022/11/11 11:59:15;;;;;;;4.57;2.00;;;;;;;12.45;81.62;102471.84;4981183;28;20238;-54
2022/11/11 12:01:53;;;;;;;12.45;3.30;;;;;;;12.47;81.52;102480.69;4988303;28;20313;-53
2022/11/11 12:04:43;;;;;;;2.33;1.52;;;;;;;12.37;81.39;102487.50;4985227;28;20245;-52
2022/11/11 12:07:14;;;;;;;4.30;2.03;;;;;;;12.46;81.72;102484.16;4979373;28;20319;-53
2022/11/11 12:09:50;;;;;;;5.28;1.80;;;;;;;12.45;81.42;102477.13;4987361;28;20678;-52
2022/11/11 12:12:25;;;;;;;2.95;1.90;;;;;;;12.47;80.47;102470.16;4977677;28;20254;-53
2022/11/11 12:14:59;;;;;;;2.97;1.60;;;;;;;12.43;81.11;102474.47;4986574;28;20324;-53
2022/11/11 12:17:30;;;;;;;12.30;2.25;;;;;;;12.41;80.54;102466.53;4984434;28;20222;-53
2022/11/11 12:20:04;;;;;;;4.13;1.75;;;;;;;12.53;79.93;102462.34;4982693;28;20325;-52
2022/11/11 12:22:41;;;;;;;4.38;1.77;;;;;;;12.54;80.83;102466.78;4978503;28;20744;-53
2022/11/11 12:25:14;;;;;;;4.30;1.95;;;;;;;12.47;81.63;102470.16;4986808;28;20240;-52
2022/11/11 12:27:48;;;;;;;2.53;1.50;;;;;;;12.62;79.15;102473.06;4981694;28;20264;-53
2022/11/11 12:30:18;;;;;;;5.88;1.98;;;;;;;12.66;79.09;102482.78;4982447;28;20236;-53
2022/11/11 12:33:08;;;;;;;6.88;1.48;;;;;;;12.71;78.45;102475.88;4987724;28;20724;-53
2022/11/11 12:35:48;;;;;;;1.85;1.20;;;;;;;12.68;78.76;102467.03;4979856;28;20244;-53
2022/11/11 12:38:30;;;;;;;2.35;1.58;;;;;;;12.79;78.31;102474.25;4978806;28;20321;-53
2022/11/11 12:41:04;;;;;;;3.33;1.73;;;;;;;12.77;77.86;102473.31;4976999;28;20328;-56
2022/11/11 12:43:37;;;;;;;4.75;1.83;;;;;;;12.89;76.68;102465.66;4977754;28;20234;-53